Arleta, California
Current Conditions -  °F | °C
As of 5:53 PM on Wednesday 26 Nov 2014 (Local Time) from KBUR Reporting Station
Clear Clear  
Wind Chill: 22°   Ceiling: Unl
Heat Index: 22°   Visibility: 10mi
Dew Point: -1°   Wind: 5mph
Humidity: 21%   Direction: 330°NNW
Pressure: 30.14"   Gusts: NA
Location:  34.2574°N, 118.255°W
Report Text: KBUR 270153Z 33004KT 10SM CLR 22/M01 A3014 RMK AO2 SLP196 T02221011
Loading
Personal Weather Stations






























Interactive Weather Map New forecast layout! Learn more

10-Day Weather Forecast

Advertisements
Track Severe Weather on mobile